aviador You're here:

YPGV Decoded Metar

GOVE AIRPORT in AUSTRALIA
Report Time2017-08-19 01:30:00
UTC Time2017-08-19 01:52:48
Flight Rules vfr VFR
Wind130° at 12 kt
W.Decomp.*RWY 13: 12.0 kt HW 0.8 kt LCW
W.Rank130° ranks 3
Current wind is above 130° avg. (7.8)
Visibility9999 m
Phenomena:N/A
Clouds:Scattered 026 Hf
CeilingNone
Temp29°C (ISA +14)
Dew Point29°C (100% RH)
Heat Index39.7°C
QNH1015 hPa
Density Alt2,283 ft
Elevation180 ft
Report Wrong Elevation
Raw Report
YPGV 190130Z AUTO 13012KT 9999 // SCT026 29/29 Q1015=

Extra information for YPGV:More info

Metar Taf Metar & Taf Last 4 Metars F.Rules Stats Wind Profile Meteogram Temp Stats Airport Information Weather charts Add Link Nearby VenuesMetar ALERT Operation Metar Decoded Social comments